Time;durP1;ratioP1;P1;durP2;ratioP2;P2;SDS_P1;SDS_P2;PMS_P1;PMS_P2;Temp;Humidity;BMP_temperature;BMP_pressure;BME280_temperature;BME280_humidity;BME280_pressure;Samples;Min_cycle;Max_cycle;Signal;HPM_P1;HPM_P2
2022/10/31 00:01:38;;;;;;;11.00;8.00;;;13.50;99.90;;;;;;6225846;28;20507;-62
2022/10/31 00:04:41;;;;;;;11.83;7.60;;;13.40;99.90;;;;;;6226009;28;20479;-62
2022/10/31 00:07:46;;;;;;;11.13;8.07;;;13.40;99.90;;;;;;6226126;28;20486;-62
2022/10/31 00:10:49;;;;;;;10.47;6.60;;;13.40;99.90;;;;;;6225964;28;20487;-61
2022/10/31 00:13:52;;;;;;;14.90;7.80;;;13.40;99.90;;;;;;6225789;28;20487;-61
2022/10/31 00:16:55;;;;;;;11.83;7.73;;;13.30;99.90;;;;;;6225344;28;20476;-61
2022/10/31 00:19:59;;;;;;;10.10;6.90;;;13.30;99.90;;;;;;6225821;28;20476;-61
2022/10/31 00:23:04;;;;;;;10.77;7.40;;;13.20;99.90;;;;;;6225872;28;20472;-61
2022/10/31 00:26:07;;;;;;;12.70;6.93;;;13.20;99.90;;;;;;6225572;28;20527;-61
2022/10/31 00:29:12;;;;;;;15.77;8.00;;;13.20;99.90;;;;;;6224032;28;20476;-61
2022/10/31 00:32:15;;;;;;;11.47;7.50;;;13.20;99.90;;;;;;6223514;28;20716;-62
2022/10/31 00:35:18;;;;;;;10.80;6.80;;;13.20;99.90;;;;;;6221573;28;20522;-62
2022/10/31 00:38:23;;;;;;;8.93;6.10;;;13.20;99.90;;;;;;6225201;28;20514;-62
2022/10/31 00:41:26;;;;;;;11.73;8.07;;;13.10;99.90;;;;;;6225488;28;20814;-61
2022/10/31 00:44:29;;;;;;;12.60;7.63;;;13.10;99.90;;;;;;6220454;28;20436;-61
2022/10/31 00:47:33;;;;;;;10.73;7.23;;;13.10;99.90;;;;;;6225119;28;20482;-63
2022/10/31 00:50:36;;;;;;;10.03;7.70;;;13.00;99.90;;;;;;6225115;28;20456;-62
2022/10/31 00:53:41;;;;;;;8.67;7.57;;;13.00;99.90;;;;;;6225157;28;20495;-64
2022/10/31 00:56:44;;;;;;;10.40;7.00;;;13.00;99.90;;;;;;6225023;28;20467;-65
2022/10/31 00:59:47;;;;;;;9.53;7.40;;;13.00;99.90;;;;;;6225495;28;20460;-63
2022/10/31 01:02:50;;;;;;;12.23;7.23;;;13.00;99.90;;;;;;6225160;28;20476;-64
2022/10/31 01:05:58;;;;;;;20.03;6.83;;;13.00;99.90;;;;;;6224835;28;20989;-61
2022/10/31 01:09:02;;;;;;;8.70;7.00;;;12.90;99.90;;;;;;6225245;28;20950;-61
2022/10/31 01:12:06;;;;;;;8.47;6.10;;;12.90;99.90;;;;;;6225601;28;20530;-63
2022/10/31 01:15:10;;;;;;;13.20;6.70;;;12.90;99.90;;;;;;6225447;28;20538;-64
2022/10/31 01:18:14;;;;;;;10.00;6.97;;;12.80;99.90;;;;;;6225099;28;20480;-64
2022/10/31 01:21:19;;;;;;;14.13;6.53;;;12.80;99.90;;;;;;6225026;28;20479;-59
2022/10/31 01:24:23;;;;;;;14.17;6.70;;;12.80;99.90;;;;;;6225074;28;20977;-59
2022/10/31 01:27:27;;;;;;;12.53;6.73;;;12.80;99.90;;;;;;6228401;28;20490;-60
2022/10/31 01:30:30;;;;;;;6.37;5.63;;;12.70;99.90;;;;;;6229692;28;20965;-59
2022/10/31 01:33:33;;;;;;;7.07;6.00;;;12.70;99.90;;;;;;6229692;28;20482;-59
2022/10/31 01:36:38;;;;;;;10.03;7.27;;;12.70;99.90;;;;;;6229592;28;20483;-62
2022/10/31 01:39:42;;;;;;;9.10;6.40;;;12.70;99.90;;;;;;6229542;28;20846;-63
2022/10/31 01:42:46;;;;;;;9.50;6.53;;;12.70;99.90;;;;;;6232648;28;20973;-62
2022/10/31 01:45:53;;;;;;;12.00;10.40;;;12.70;99.90;;;;;;6229219;28;20521;-63
2022/10/31 01:48:58;;;;;;;18.33;10.13;;;12.70;99.90;;;;;;6229697;28;20463;-61
2022/10/31 01:52:04;;;;;;;11.10;7.90;;;12.70;99.90;;;;;;6229162;28;20818;-62
2022/10/31 01:55:12;;;;;;;10.27;7.63;;;12.70;99.90;;;;;;6228879;28;20871;-63
2022/10/31 01:58:20;;;;;;;8.83;7.80;;;12.60;99.90;;;;;;6228971;28;21028;-60
2022/10/31 02:01:23;;;;;;;7.90;7.10;;;12.60;99.90;;;;;;6228973;28;20476;-62
2022/10/31 02:04:27;;;;;;;12.10;7.87;;;12.60;99.90;;;;;;6228805;28;20471;-62
2022/10/31 02:07:37;;;;;;;11.67;6.80;;;12.50;99.90;;;;;;6228693;28;20476;-64
2022/10/31 02:10:44;;;;;;;15.97;9.10;;;12.50;99.90;;;;;;6228938;28;20471;-63
2022/10/31 02:13:48;;;;;;;12.23;7.47;;;12.40;99.90;;;;;;6228510;28;20807;-63
2022/10/31 02:16:51;;;;;;;11.40;7.10;;;12.40;99.90;;;;;;6228799;28;20483;-60
2022/10/31 02:20:03;;;;;;;12.90;7.03;;;12.40;99.90;;;;;;6228597;28;20858;-59
2022/10/31 02:23:30;;;;;;;9.20;6.33;;;12.40;99.90;;;;;;6228645;28;21011;-63
2022/10/31 02:26:58;;;;;;;14.40;6.30;;;12.30;99.90;;;;;;6231417;28;20739;-60
2022/10/31 02:30:15;;;;;;;9.90;6.17;;;12.20;99.90;;;;;;6228525;28;20926;-61
2022/10/31 02:33:28;;;;;;;9.10;5.87;;;12.20;99.90;;;;;;6228095;28;20484;-61
2022/10/31 02:36:39;;;;;;;13.17;6.57;;;12.20;99.90;;;;;;6227674;28;20499;-63
2022/10/31 02:39:50;;;;;;;11.53;6.83;;;12.20;99.90;;;;;;6227277;28;20989;-63
2022/10/31 02:43:03;;;;;;;8.50;6.87;;;12.10;99.90;;;;;;6228113;28;20480;-63
2022/10/31 02:46:15;;;;;;;13.17;7.60;;;12.20;99.90;;;;;;6227816;28;20479;-60
2022/10/31 02:49:28;;;;;;;13.13;7.87;;;12.20;99.90;;;;;;6228025;28;20534;-60
2022/10/31 02:52:33;;;;;;;12.00;7.27;;;12.10;99.90;;;;;;6227871;28;20480;-64
2022/10/31 02:56:06;;;;;;;12.80;7.70;;;12.10;99.90;;;;;;6218868;28;20956;-64
2022/10/31 02:59:09;;;;;;;10.70;8.27;;;12.10;99.90;;;;;;6194121;28;20972;-60
2022/10/31 03:02:34;;;;;;;11.20;6.53;;;12.10;99.90;;;;;;6227447;28;20472;-63
2022/10/31 03:05:49;;;;;;;9.53;7.73;;;12.00;99.90;;;;;;6227395;28;20476;-61
2022/10/31 03:09:00;;;;;;;13.40;8.07;;;12.00;99.90;;;;;;6227578;28;20538;-62
2022/10/31 03:12:08;;;;;;;9.57;6.90;;;12.00;99.90;;;;;;6227281;28;20538;-61
2022/10/31 03:15:18;;;;;;;10.93;8.83;;;11.90;99.90;;;;;;6227039;28;20953;-61
2022/10/31 03:18:29;;;;;;;10.40;7.87;;;12.00;99.90;;;;;;6227139;28;20480;-61
2022/10/31 03:21:37;;;;;;;10.67;8.67;;;12.00;99.90;;;;;;6227121;28;20993;-63
2022/10/31 03:24:41;;;;;;;12.77;9.30;;;11.90;99.90;;;;;;6226949;28;20487;-64
2022/10/31 03:27:46;;;;;;;10.50;8.70;;;11.90;99.90;;;;;;6227084;28;20484;-60
2022/10/31 03:30:52;;;;;;;9.97;9.07;;;11.90;99.90;;;;;;6229394;28;20486;-64
2022/10/31 03:33:57;;;;;;;12.73;8.33;;;11.90;99.90;;;;;;6226810;28;20503;-60
2022/10/31 03:37:04;;;;;;;9.60;8.20;;;11.80;99.90;;;;;;6226729;28;20812;-64
2022/10/31 03:40:11;;;;;;;11.10;8.60;;;11.80;99.90;;;;;;6226823;28;20472;-63
2022/10/31 03:43:17;;;;;;;10.37;8.27;;;11.80;99.90;;;;;;6226675;28;20810;-60
2022/10/31 03:46:21;;;;;;;10.63;8.77;;;11.80;99.90;;;;;;6226259;28;20486;-61
2022/10/31 03:49:24;;;;;;;12.93;9.27;;;11.70;99.90;;;;;;6226198;28;20808;-61
2022/10/31 03:52:35;;;;;;;9.03;8.10;;;11.70;99.90;;;;;;6226490;28;20471;-61
2022/10/31 03:55:43;;;;;;;13.93;8.03;;;11.70;99.90;;;;;;6226345;28;20489;-60
2022/10/31 03:58:53;;;;;;;10.50;7.07;;;11.70;99.90;;;;;;6226498;28;20480;-63
2022/10/31 04:02:01;;;;;;;9.47;6.77;;;11.70;99.90;;;;;;6226546;28;20483;-60
2022/10/31 04:05:06;;;;;;;9.93;8.37;;;11.60;99.90;;;;;;6225996;28;20464;-61
2022/10/31 04:08:16;;;;;;;9.73;7.97;;;11.60;99.90;;;;;;6226115;28;20530;-61
2022/10/31 04:11:24;;;;;;;9.80;8.90;;;11.70;99.90;;;;;;6226188;28;20542;-61
2022/10/31 04:14:28;;;;;;;13.13;8.77;;;11.70;99.90;;;;;;6225895;28;20476;-60
2022/10/31 04:17:35;;;;;;;8.37;7.53;;;11.70;99.90;;;;;;6225796;28;20464;-63
2022/10/31 04:20:41;;;;;;;9.83;8.83;;;11.70;99.90;;;;;;6226157;28;20874;-64
2022/10/31 04:23:45;;;;;;;10.67;8.67;;;11.60;99.90;;;;;;6225851;28;20448;-64
2022/10/31 04:26:48;;;;;;;10.53;7.27;;;11.60;99.90;;;;;;6225598;28;20905;-62
2022/10/31 04:29:52;;;;;;;9.17;8.27;;;11.70;99.90;;;;;;6225636;28;20575;-64
2022/10/31 04:32:55;;;;;;;9.33;7.63;;;11.60;99.90;;;;;;6225894;28;20556;-64
2022/10/31 04:35:58;;;;;;;8.73;7.83;;;11.60;99.90;;;;;;6225338;28;20475;-63
2022/10/31 04:39:02;;;;;;;9.27;7.23;;;11.60;99.90;;;;;;6225481;28;20484;-61
2022/10/31 04:42:06;;;;;;;9.93;7.90;;;11.50;99.90;;;;;;6225543;28;20478;-60
2022/10/31 04:45:09;;;;;;;13.90;8.20;;;11.50;99.90;;;;;;6225135;28;20802;-59
2022/10/31 04:48:17;;;;;;;10.40;6.40;;;11.50;99.90;;;;;;6224926;28;20484;-62
2022/10/31 04:51:20;;;;;;;8.20;6.47;;;11.50;99.90;;;;;;6225548;28;20483;-59
2022/10/31 04:54:25;;;;;;;19.67;7.43;;;11.50;99.90;;;;;;6225260;28;20492;-61
2022/10/31 04:57:28;;;;;;;9.17;8.23;;;11.40;99.90;;;;;;6225131;28;20486;-60
2022/10/31 05:00:31;;;;;;;13.20;8.33;;;11.40;99.90;;;;;;6215592;28;20472;-60
2022/10/31 05:03:34;;;;;;;10.50;7.93;;;11.40;99.90;;;;;;6224948;28;20491;-59
2022/10/31 05:06:37;;;;;;;12.87;6.93;;;11.30;99.90;;;;;;6225132;28;20476;-62
2022/10/31 05:09:42;;;;;;;9.47;7.10;;;11.30;99.90;;;;;;6216174;28;20473;-62
2022/10/31 05:12:49;;;;;;;10.13;7.30;;;11.30;99.90;;;;;;6213218;28;20961;-61
2022/10/31 05:15:52;;;;;;;7.60;6.30;;;11.30;99.90;;;;;;6212822;28;20472;-60
2022/10/31 05:18:55;;;;;;;10.73;6.80;;;11.30;99.90;;;;;;6206735;28;20469;-62
2022/10/31 05:21:58;;;;;;;10.43;6.83;;;11.30;99.90;;;;;;6202760;28;20489;-62
2022/10/31 05:25:02;;;;;;;9.90;7.43;;;11.20;99.90;;;;;;6200490;28;20532;-60
2022/10/31 05:28:05;;;;;;;7.93;7.10;;;11.10;99.90;;;;;;6200249;28;20559;-60
2022/10/31 05:31:09;;;;;;;7.90;6.77;;;11.10;99.90;;;;;;6200184;28;20502;-63
2022/10/31 05:34:12;;;;;;;7.90;6.50;;;11.10;99.90;;;;;;6199977;28;20503;-60
2022/10/31 05:37:15;;;;;;;10.00;7.47;;;11.10;99.90;;;;;;6199647;28;20978;-63
2022/10/31 05:40:20;;;;;;;11.03;7.70;;;11.10;99.90;;;;;;6200243;28;20468;-61
2022/10/31 05:43:23;;;;;;;9.53;7.60;;;11.10;99.90;;;;;;6200268;28;20986;-62
2022/10/31 05:46:27;;;;;;;11.07;7.47;;;11.10;99.90;;;;;;6200572;28;20485;-61
2022/10/31 05:49:30;;;;;;;11.90;8.07;;;11.20;99.90;;;;;;6207711;28;20506;-61
2022/10/31 05:52:33;;;;;;;9.27;8.17;;;11.10;99.90;;;;;;6220330;28;20475;-62
2022/10/31 05:55:38;;;;;;;10.40;8.00;;;11.20;99.90;;;;;;6222782;28;20561;-63
2022/10/31 05:58:41;;;;;;;10.73;7.67;;;11.20;99.90;;;;;;6222435;28;20542;-64
2022/10/31 06:01:44;;;;;;;9.13;7.77;;;11.30;99.90;;;;;;6221739;28;20483;-64
2022/10/31 06:04:47;;;;;;;11.17;9.87;;;11.30;99.90;;;;;;6215059;28;20519;-64
2022/10/31 06:07:51;;;;;;;16.93;9.63;;;11.40;99.90;;;;;;6224106;28;20475;-62
2022/10/31 06:10:55;;;;;;;11.63;9.17;;;11.40;99.90;;;;;;6223794;28;20463;-64
2022/10/31 06:13:58;;;;;;;12.20;8.93;;;11.40;99.90;;;;;;6226441;28;20475;-63
2022/10/31 06:17:01;;;;;;;9.23;8.33;;;11.50;99.90;;;;;;6228478;28;20468;-64
2022/10/31 06:20:06;;;;;;;9.00;8.00;;;11.50;99.90;;;;;;6228907;28;20487;-64
2022/10/31 06:23:09;;;;;;;15.57;8.07;;;11.60;99.90;;;;;;6228748;28;20994;-64
2022/10/31 06:26:13;;;;;;;11.60;8.17;;;11.60;99.90;;;;;;6228130;28;20487;-64
2022/10/31 06:29:16;;;;;;;13.20;8.60;;;11.60;99.90;;;;;;6228156;28;20479;-64
2022/10/31 06:32:20;;;;;;;15.30;8.60;;;11.60;99.90;;;;;;6228580;28;20480;-63
2022/10/31 06:35:23;;;;;;;13.53;8.20;;;11.70;99.90;;;;;;6228454;28;20484;-64
2022/10/31 06:38:26;;;;;;;9.73;7.13;;;11.70;99.90;;;;;;6228002;28;20467;-61
2022/10/31 06:41:31;;;;;;;12.10;7.80;;;11.70;99.90;;;;;;6228237;28;20444;-62
2022/10/31 06:44:34;;;;;;;10.60;6.97;;;11.80;99.90;;;;;;6228341;28;20837;-64
2022/10/31 06:47:37;;;;;;;10.80;6.70;;;11.80;99.90;;;;;;6227957;28;20491;-64
2022/10/31 06:51:01;;;;;;;11.37;7.47;;;11.90;99.90;;;;;;6228240;28;20558;-65
2022/10/31 06:54:04;;;;;;;17.63;8.20;;;12.00;99.90;;;;;;6227944;28;20478;-61
2022/10/31 06:57:09;;;;;;;10.13;7.97;;;12.10;99.90;;;;;;6227406;28;20480;-62
2022/10/31 07:00:13;;;;;;;11.40;8.40;;;12.20;99.90;;;;;;6227793;28;20530;-64
2022/10/31 07:03:16;;;;;;;11.83;7.30;;;12.30;99.90;;;;;;6227330;28;20472;-61
2022/10/31 07:06:19;;;;;;;13.07;8.47;;;12.40;99.90;;;;;;6222898;28;20814;-61
2022/10/31 07:09:23;;;;;;;12.97;8.20;;;12.50;99.90;;;;;;6227355;28;20476;-64
2022/10/31 07:12:27;;;;;;;11.70;9.00;;;12.50;99.90;;;;;;6228983;28;20475;-61
2022/10/31 07:15:34;;;;;;;13.63;10.50;;;12.60;99.90;;;;;;6229608;28;20480;-61
2022/10/31 07:18:38;;;;;;;9.60;7.97;;;12.70;99.90;;;;;;6227686;28;20480;-61
2022/10/31 07:21:41;;;;;;;13.53;9.03;;;12.70;99.90;;;;;;6227200;28;20480;-62
2022/10/31 07:24:44;;;;;;;12.63;9.57;;;12.80;99.90;;;;;;6226726;28;20538;-62
2022/10/31 07:27:49;;;;;;;9.87;8.50;;;12.90;99.90;;;;;;6226628;28;20510;-64
2022/10/31 07:30:54;;;;;;;10.07;7.70;;;12.90;99.90;;;;;;6226819;28;20491;-60
2022/10/31 07:33:57;;;;;;;15.93;10.10;;;12.90;99.90;;;;;;6226563;28;20494;-60
2022/10/31 07:37:00;;;;;;;15.30;9.60;;;13.10;99.90;;;;;;6226694;28;20472;-61
2022/10/31 07:40:03;;;;;;;9.83;8.53;;;13.30;99.90;;;;;;6226695;28;20537;-61
2022/10/31 07:43:08;;;;;;;13.77;9.07;;;13.40;99.90;;;;;;6226538;28;20479;-61
2022/10/31 07:46:16;;;;;;;11.10;9.30;;;13.40;99.90;;;;;;6226467;28;20597;-61
2022/10/31 07:49:19;;;;;;;10.77;9.50;;;13.50;99.90;;;;;;6226502;28;20509;-61
2022/10/31 07:52:22;;;;;;;14.43;9.37;;;13.70;99.90;;;;;;6225976;28;20479;-63
2022/10/31 07:55:26;;;;;;;10.60;8.50;;;13.80;99.90;;;;;;6225940;28;20479;-61
2022/10/31 07:58:30;;;;;;;14.13;9.60;;;14.00;99.90;;;;;;6225984;28;20547;-61
2022/10/31 08:01:33;;;;;;;16.87;15.10;;;14.10;99.90;;;;;;6222962;28;21003;-64
2022/10/31 08:04:36;;;;;;;15.90;11.37;;;14.30;99.90;;;;;;6226520;28;20476;-61
2022/10/31 08:07:39;;;;;;;16.57;11.20;;;14.40;99.90;;;;;;6224486;28;20500;-60
2022/10/31 08:10:43;;;;;;;10.33;9.40;;;14.50;99.90;;;;;;6212520;28;20483;-61
2022/10/31 08:13:47;;;;;;;14.60;10.03;;;14.60;99.90;;;;;;6213698;28;20485;-61
2022/10/31 08:16:51;;;;;;;13.20;9.43;;;14.70;99.90;;;;;;6213044;28;20491;-61
2022/10/31 08:19:54;;;;;;;14.40;9.20;;;15.00;99.90;;;;;;6210940;28;20472;-60
2022/10/31 08:22:58;;;;;;;10.23;9.23;;;15.10;99.90;;;;;;6220310;28;20529;-60
2022/10/31 08:26:01;;;;;;;11.33;10.07;;;15.30;99.90;;;;;;6211367;28;20480;-61
2022/10/31 08:29:06;;;;;;;10.10;9.13;;;15.50;99.90;;;;;;6200849;28;20523;-60
2022/10/31 08:32:09;;;;;;;11.67;8.03;;;15.70;99.90;;;;;;6206062;28;20471;-60
2022/10/31 08:35:12;;;;;;;10.73;7.90;;;15.90;99.90;;;;;;6212726;28;20465;-60
2022/10/31 08:38:16;;;;;;;10.67;8.90;;;16.10;99.90;;;;;;6213733;28;20525;-60
2022/10/31 08:41:19;;;;;;;11.83;8.07;;;16.40;99.90;;;;;;6213505;28;20472;-60
2022/10/31 08:44:23;;;;;;;10.40;9.30;;;16.60;99.90;;;;;;6213355;28;20797;-60
2022/10/31 08:47:27;;;;;;;8.67;7.60;;;16.90;99.90;;;;;;6216006;28;20460;-60
2022/10/31 08:50:32;;;;;;;15.80;9.57;;;17.10;99.90;;;;;;6225122;28;20440;-60
2022/10/31 08:53:35;;;;;;;9.07;7.90;;;17.40;99.90;;;;;;6221991;28;20540;-59
2022/10/31 08:56:39;;;;;;;11.43;6.80;;;18.20;99.90;;;;;;6224871;28;20506;-60
2022/10/31 08:59:43;;;;;;;12.57;7.00;;;20.60;99.90;;;;;;6224821;28;20308;-61
2022/10/31 09:02:46;;;;;;;10.53;6.27;;;24.30;94.20;;;;;;6225011;28;20224;-60
2022/10/31 09:05:49;;;;;;;9.10;6.80;;;28.10;75.70;;;;;;6224119;28;20228;-61
2022/10/31 09:08:53;;;;;;;15.03;7.13;;;29.40;59.40;;;;;;6224488;28;20549;-60
2022/10/31 09:11:56;;;;;;;18.90;8.10;;;28.20;56.60;;;;;;6220772;28;20232;-60
2022/10/31 09:15:01;;;;;;;9.23;7.10;;;26.90;58.50;;;;;;6224474;28;20708;-60
2022/10/31 09:18:05;;;;;;;9.53;7.20;;;25.90;60.80;;;;;;6203539;28;20683;-59
2022/10/31 09:21:08;;;;;;;8.97;6.90;;;25.10;64.50;;;;;;6198990;28;20229;-60
2022/10/31 09:24:12;;;;;;;10.80;6.87;;;26.30;65.30;;;;;;6199860;28;20239;-60
2022/10/31 09:27:15;;;;;;;11.23;7.00;;;29.80;56.90;;;;;;6200314;28;20229;-60
2022/10/31 09:30:20;;;;;;;16.70;7.95;;;33.20;47.50;;;;;;6201988;28;20646;-61
2022/10/31 09:33:23;;;;;;;10.00;7.80;;;35.80;41.20;;;;;;6224122;28;20341;-61
2022/10/31 09:36:27;;;;;;;11.68;7.85;;;37.40;35.10;;;;;;6224599;28;20254;-62
2022/10/31 09:39:30;;;;;;;9.73;8.73;;;37.80;34.30;;;;;;6223756;28;20237;-62
2022/10/31 09:42:51;;;;;;;8.38;6.93;;;39.50;31.50;;;;;;6224165;28;20240;-61
2022/10/31 09:46:05;;;;;;;10.50;7.72;;;40.40;29.90;;;;;;6223878;28;20326;-61
2022/10/31 09:49:32;;;;;;;9.02;6.38;;;41.80;28.20;;;;;;6228737;28;20234;-61
2022/10/31 09:52:40;;;;;;;9.13;7.45;;;43.20;26.50;;;;;;6228982;28;20554;-61
2022/10/31 09:55:47;;;;;;;11.80;7.40;;;44.40;25.20;;;;;;6228615;28;20237;-60
2022/10/31 09:58:55;;;;;;;10.95;7.40;;;45.10;24.30;;;;;;6228947;28;20242;-60
2022/10/31 10:02:02;;;;;;;8.80;7.18;;;46.10;23.40;;;;;;6228418;28;20239;-60
2022/10/31 10:05:10;;;;;;;10.88;7.82;;;45.60;23.00;;;;;;6228783;28;20247;-60
2022/10/31 10:08:19;;;;;;;8.52;7.60;;;46.10;22.70;;;;;;6227933;28;20236;-61
2022/10/31 10:11:41;;;;;;;8.60;6.55;;;45.40;22.60;;;;;;6228260;28;20228;-61
2022/10/31 10:15:14;;;;;;;10.80;6.97;;;45.30;22.60;;;;;;6219901;28;20227;-61
2022/10/31 10:18:31;;;;;;;9.43;6.85;;;45.90;22.20;;;;;;6228084;28;20235;-61
2022/10/31 10:21:46;;;;;;;9.20;7.00;;;45.90;22.20;;;;;;6203962;28;20229;-59
2022/10/31 10:25:02;;;;;;;10.38;7.18;;;47.00;21.80;;;;;;6204620;28;20233;-60
2022/10/31 10:28:16;;;;;;;11.68;6.80;;;47.70;21.00;;;;;;6204075;28;20240;-61
2022/10/31 10:31:24;;;;;;;9.65;6.63;;;48.30;21.00;;;;;;6204186;28;20229;-60
2022/10/31 10:34:32;;;;;;;9.38;7.13;;;47.80;20.40;;;;;;6204105;28;20229;-60
2022/10/31 10:37:40;;;;;;;10.40;7.53;;;47.80;20.50;;;;;;6203215;28;20228;-60
2022/10/31 10:40:44;;;;;;;7.38;5.95;;;47.40;20.70;;;;;;6203938;28;20295;-61
2022/10/31 10:43:50;;;;;;;10.95;7.15;;;48.10;20.30;;;;;;6203354;28;20236;-60
2022/10/31 10:50:23;;;;;;;8.88;5.63;;;49.70;19.10;;;;;;6203254;28;20238;-63
2022/10/31 10:53:48;;;;;;;9.27;6.68;;;49.40;19.10;;;;;;6203330;28;20242;-61
2022/10/31 10:57:06;;;;;;;7.53;6.25;;;49.50;18.80;;;;;;6203140;28;20249;-61
2022/10/31 11:00:19;;;;;;;11.40;6.45;;;48.80;19.20;;;;;;6200776;28;20762;-60
2022/10/31 11:03:22;;;;;;;11.02;6.55;;;47.30;20.10;;;;;;6201652;28;20226;-60
2022/10/31 11:06:27;;;;;;;11.15;7.13;;;48.00;19.80;;;;;;6201459;28;20248;-62
2022/10/31 11:09:30;;;;;;;8.65;6.35;;;48.20;19.50;;;;;;6201768;28;20228;-65
2022/10/31 11:12:34;;;;;;;6.80;6.10;;;49.00;19.00;;;;;;6201350;28;20227;-63
2022/10/31 11:15:49;;;;;;;10.13;6.53;;;49.50;18.50;;;;;;6203705;28;20704;-63
2022/10/31 11:18:53;;;;;;;7.95;6.60;;;49.50;18.50;;;;;;6222647;28;20308;-63
2022/10/31 11:22:07;;;;;;;6.68;6.07;;;49.30;18.50;;;;;;6226207;28;20302;-63
2022/10/31 11:25:22;;;;;;;13.48;7.07;;;48.60;18.80;;;;;;6226846;28;20226;-64
2022/10/31 11:28:25;;;;;;;9.57;6.40;;;49.50;18.50;;;;;;6226583;28;20246;-64
2022/10/31 11:31:29;;;;;;;10.07;6.53;;;50.00;18.00;;;;;;6227004;28;20248;-64
2022/10/31 11:34:35;;;;;;;8.73;6.20;;;49.30;18.10;;;;;;6226567;28;20225;-65
2022/10/31 11:37:44;;;;;;;9.32;6.22;;;49.00;18.50;;;;;;6226033;28;20299;-64
2022/10/31 11:41:01;;;;;;;10.02;6.05;;;49.00;18.20;;;;;;6226366;28;20233;-63
2022/10/31 11:44:11;;;;;;;11.73;6.18;;;48.80;18.40;;;;;;6226405;28;20233;-64
2022/10/31 11:47:17;;;;;;;9.07;6.47;;;48.90;18.50;;;;;;6226198;28;20251;-63
2022/10/31 11:50:24;;;;;;;6.57;5.78;;;49.90;18.10;;;;;;6226147;28;20234;-63
2022/10/31 11:53:31;;;;;;;9.55;6.20;;;50.80;17.70;;;;;;6226043;28;20244;-64
2022/10/31 11:56:41;;;;;;;6.47;5.53;;;49.70;17.90;;;;;;6226025;28;20238;-61
2022/10/31 11:59:52;;;;;;;9.10;6.30;;;50.10;17.70;;;;;;6226058;28;20250;-62
2022/10/31 12:03:12;;;;;;;8.57;5.95;;;50.10;17.70;;;;;;6226422;28;20264;-61
2022/10/31 12:06:21;;;;;;;8.38;6.00;;;50.20;17.40;;;;;;6225562;28;20703;-61
2022/10/31 12:09:27;;;;;;;6.55;5.50;;;49.10;18.10;;;;;;6225526;28;20673;-63
2022/10/31 12:12:53;;;;;;;7.00;5.68;;;47.70;18.70;;;;;;6225478;28;20646;-60
2022/10/31 12:16:03;;;;;;;9.63;6.35;;;48.00;18.80;;;;;;6225462;28;20216;-62
2022/10/31 12:19:13;;;;;;;6.78;6.07;;;47.60;18.80;;;;;;6225866;28;20298;-63
2022/10/31 12:22:25;;;;;;;6.68;6.05;;;48.00;18.70;;;;;;6225100;28;20599;-63
2022/10/31 12:25:39;;;;;;;7.80;5.82;;;47.80;18.90;;;;;;6225563;28;20228;-60
2022/10/31 12:29:01;;;;;;;5.82;5.43;;;48.20;18.60;;;;;;6225490;28;20232;-60
2022/10/31 12:32:21;;;;;;;8.07;6.05;;;47.20;18.90;;;;;;6225587;28;20235;-62
2022/10/31 12:35:55;;;;;;;6.85;5.70;;;46.70;19.40;;;;;;6225360;28;20230;-62
2022/10/31 12:39:24;;;;;;;6.75;6.05;;;46.70;19.20;;;;;;6192396;28;20230;-61
2022/10/31 12:42:47;;;;;;;8.20;6.45;;;46.10;19.90;;;;;;6225712;28;20224;-60
2022/10/31 12:45:55;;;;;;;6.38;5.78;;;46.40;19.80;;;;;;6225080;28;20271;-63
2022/10/31 12:49:23;;;;;;;8.45;5.50;;;45.90;20.00;;;;;;6225677;28;20564;-63
2022/10/31 12:52:37;;;;;;;6.65;5.60;;;46.90;19.60;;;;;;6224842;28;20232;-63
2022/10/31 12:55:57;;;;;;;5.78;5.05;;;47.20;19.10;;;;;;6224820;28;20235;-61
2022/10/31 12:59:07;;;;;;;5.85;5.30;;;46.50;19.40;;;;;;6225169;28;20544;-61
2022/10/31 13:02:17;;;;;;;9.50;5.88;;;46.30;19.60;;;;;;6224722;28;20245;-62
2022/10/31 13:05:28;;;;;;;8.48;5.70;;;46.60;19.60;;;;;;6225117;28;20231;-66
2022/10/31 13:08:40;;;;;;;7.32;5.75;;;46.70;19.50;;;;;;6225662;28;20222;-64
2022/10/31 13:11:47;;;;;;;8.90;5.93;;;46.90;19.10;;;;;;6226806;28;20212;-63
2022/10/31 13:14:55;;;;;;;9.07;5.97;;;45.90;19.50;;;;;;6224748;28;20582;-62
2022/10/31 13:18:01;;;;;;;7.38;5.65;;;45.70;19.90;;;;;;6224687;28;20241;-61
2022/10/31 13:21:11;;;;;;;7.68;6.22;;;45.40;19.90;;;;;;6224846;28;20296;-63
2022/10/31 13:24:21;;;;;;;8.88;5.90;;;45.40;20.00;;;;;;6220942;28;20636;-62
2022/10/31 13:27:27;;;;;;;6.80;5.47;;;45.20;19.90;;;;;;6229861;28;20244;-61
2022/10/31 13:30:36;;;;;;;8.23;6.43;;;44.20;20.60;;;;;;6230433;28;20225;-62
2022/10/31 13:33:45;;;;;;;6.78;5.53;;;43.00;21.20;;;;;;6229075;28;20250;-62
2022/10/31 13:36:56;;;;;;;6.60;6.00;;;42.20;22.00;;;;;;6228896;28;20241;-64
2022/10/31 13:40:14;;;;;;;8.38;6.35;;;42.10;22.30;;;;;;6228818;28;20241;-62
2022/10/31 13:43:27;;;;;;;9.65;5.57;;;41.80;22.60;;;;;;6229040;28;20254;-62
2022/10/31 13:46:40;;;;;;;6.55;5.78;;;40.20;23.60;;;;;;6228807;28;20248;-61
2022/10/31 13:49:48;;;;;;;7.53;6.80;;;37.90;25.50;;;;;;6228658;28;20217;-61
2022/10/31 13:52:51;;;;;;;10.30;6.65;;;35.60;27.80;;;;;;6228860;28;20232;-61
2022/10/31 13:56:06;;;;;;;8.52;7.07;;;33.90;29.60;;;;;;6228587;28;20260;-64
2022/10/31 13:59:20;;;;;;;7.20;6.22;;;32.20;32.20;;;;;;6228741;28;20243;-64
2022/10/31 14:02:28;;;;;;;9.52;7.35;;;30.80;34.50;;;;;;6228665;28;20630;-65
2022/10/31 14:05:34;;;;;;;9.43;7.23;;;29.30;37.80;;;;;;6229116;28;20212;-66
2022/10/31 14:08:41;;;;;;;8.40;6.17;;;28.10;40.30;;;;;;6229079;28;20235;-63
2022/10/31 14:11:47;;;;;;;8.47;7.00;;;27.30;42.50;;;;;;6228554;28;20208;-61
2022/10/31 14:14:59;;;;;;;8.77;7.23;;;26.40;44.30;;;;;;6228487;28;20231;-64
2022/10/31 14:18:06;;;;;;;10.37;7.00;;;25.90;45.70;;;;;;6228012;28;20236;-65
2022/10/31 14:21:28;;;;;;;8.20;6.37;;;25.20;47.80;;;;;;6227726;28;20225;-65
2022/10/31 14:24:38;;;;;;;7.43;6.73;;;24.60;49.00;;;;;;6228275;28;20225;-64
2022/10/31 14:27:47;;;;;;;7.93;7.13;;;24.20;50.80;;;;;;6223715;28;20675;-63
2022/10/31 14:30:55;;;;;;;7.67;6.87;;;23.90;51.40;;;;;;6228037;28;20236;-64
2022/10/31 14:34:00;;;;;;;7.50;6.40;;;23.40;52.80;;;;;;6226276;28;20232;-64
2022/10/31 14:37:18;;;;;;;7.93;7.20;;;22.90;54.20;;;;;;6227755;28;20240;-64
2022/10/31 14:40:28;;;;;;;12.30;7.40;;;22.70;55.20;;;;;;6227546;28;20674;-61
2022/10/31 14:43:59;;;;;;;10.33;6.50;;;22.30;56.40;;;;;;6228833;28;20243;-64
2022/10/31 14:47:14;;;;;;;10.43;7.20;;;22.30;57.30;;;;;;6227629;28;20244;-61
2022/10/31 14:50:37;;;;;;;10.37;8.03;;;22.10;58.20;;;;;;6227182;28;20240;-63
2022/10/31 14:53:49;;;;;;;9.10;7.57;;;21.80;59.70;;;;;;6227368;28;20218;-63
2022/10/31 14:56:55;;;;;;;6.57;5.97;;;21.60;61.30;;;;;;6227441;28;20258;-61
2022/10/31 15:00:05;;;;;;;8.27;7.30;;;21.40;63.70;;;;;;6227560;28;20233;-60
2022/10/31 15:03:15;;;;;;;10.53;7.83;;;21.10;65.80;;;;;;6226940;28;20236;-60
2022/10/31 15:06:23;;;;;;;10.80;7.50;;;20.90;68.00;;;;;;6227080;28;20233;-64
2022/10/31 15:09:29;;;;;;;9.23;8.30;;;20.70;70.40;;;;;;6223117;28;20256;-64
2022/10/31 15:12:34;;;;;;;7.93;7.00;;;20.70;72.00;;;;;;6213324;28;20221;-60
2022/10/31 15:15:38;;;;;;;9.00;7.50;;;20.70;73.00;;;;;;6206012;28;20236;-63
2022/10/31 15:18:49;;;;;;;8.40;7.60;;;20.50;75.20;;;;;;6215447;28;20244;-64
2022/10/31 15:21:55;;;;;;;8.70;7.73;;;20.40;76.70;;;;;;6217923;28;20229;-60
2022/10/31 15:24:58;;;;;;;10.47;8.20;;;20.10;79.10;;;;;;6223347;28;20232;-65
2022/10/31 15:28:01;;;;;;;9.10;8.20;;;20.00;80.80;;;;;;6205341;28;20687;-60
2022/10/31 15:31:05;;;;;;;8.30;7.50;;;19.90;82.40;;;;;;6205200;28;20371;-60
2022/10/31 15:34:18;;;;;;;9.37;7.37;;;19.70;84.20;;;;;;6225952;28;20232;-64
2022/10/31 15:37:25;;;;;;;10.13;7.40;;;19.60;85.60;;;;;;6226595;28;20551;-62
2022/10/31 15:40:28;;;;;;;9.90;7.37;;;19.40;87.30;;;;;;6226623;28;20245;-63
2022/10/31 15:43:39;;;;;;;9.33;8.03;;;19.20;89.40;;;;;;6226118;28;20240;-62
2022/10/31 15:46:42;;;;;;;9.37;7.90;;;19.20;90.10;;;;;;6219862;28;20233;-63
2022/10/31 15:49:50;;;;;;;9.10;8.20;;;19.20;90.60;;;;;;6212329;28;20260;-62
2022/10/31 15:52:55;;;;;;;8.47;7.67;;;19.20;91.20;;;;;;6222027;28;20225;-62
2022/10/31 15:56:01;;;;;;;8.63;7.73;;;19.10;91.70;;;;;;6226184;28;20245;-62
2022/10/31 15:59:05;;;;;;;8.57;7.87;;;19.00;92.10;;;;;;6226080;28;20233;-61
2022/10/31 16:02:12;;;;;;;9.50;8.50;;;18.80;92.60;;;;;;6226497;28;20225;-61
2022/10/31 16:05:20;;;;;;;9.37;8.57;;;18.70;94.10;;;;;;6226216;28;20277;-61
2022/10/31 16:08:32;;;;;;;11.43;8.67;;;18.60;95.30;;;;;;6225679;28;20240;-63
2022/10/31 16:11:37;;;;;;;10.30;9.40;;;18.50;96.80;;;;;;6226084;28;20262;-62